createdAt,value
2019-03-05T00:00:26.525Z,6.06
2019-03-05T00:02:54.872Z,6.02
2019-03-05T00:05:23.431Z,6.04
2019-03-05T00:07:51.678Z,6.04
2019-03-05T00:10:20.203Z,6.09
2019-03-05T00:12:48.438Z,6.14
2019-03-05T00:15:19.313Z,6.19
2019-03-05T00:17:47.540Z,6.19
2019-03-05T00:20:15.769Z,6.20
2019-03-05T00:22:44.003Z,6.20
2019-03-05T00:25:24.495Z,6.20
2019-03-05T00:28:01.687Z,6.15
2019-03-05T00:30:48.208Z,6.16
2019-03-05T00:33:42.356Z,6.15
2019-03-05T00:36:16.666Z,6.12
2019-03-05T00:39:06.341Z,6.11
2019-03-05T00:41:58.206Z,6.09
2019-03-05T00:45:03.034Z,6.07
2019-03-05T00:47:55.091Z,6.05
2019-03-05T00:50:35.530Z,5.99
2019-03-05T00:53:16.027Z,5.97
2019-03-05T00:56:05.732Z,5.96
2019-03-05T00:58:40.195Z,5.95
2019-03-05T01:01:23.011Z,5.94
2019-03-05T01:04:03.068Z,5.99
2019-03-05T01:06:31.742Z,6.03
2019-03-05T01:09:00.049Z,6.04
2019-03-05T01:11:28.624Z,6.05
2019-03-05T01:13:56.927Z,6.08
2019-03-05T01:16:27.078Z,6.04
2019-03-05T01:18:55.303Z,6.08
2019-03-05T01:21:23.550Z,6.08
2019-03-05T01:23:51.782Z,6.09
2019-03-05T01:26:20.305Z,6.12
2019-03-05T01:28:48.538Z,6.08
2019-03-05T01:31:34.823Z,6.10
2019-03-05T01:34:16.690Z,6.09
2019-03-05T01:36:46.567Z,6.08
2019-03-05T01:39:32.550Z,6.09
2019-03-05T01:42:00.824Z,6.08
2019-03-05T01:44:29.056Z,6.10
2019-03-05T01:46:57.298Z,6.09
2019-03-05T01:49:25.527Z,6.11
2019-03-05T01:51:54.215Z,6.12
2019-03-05T01:54:22.450Z,6.06
2019-03-05T01:56:50.677Z,6.09
2019-03-05T01:59:19.143Z,6.08
2019-03-05T02:01:47.370Z,6.10
2019-03-05T02:04:15.604Z,6.11
2019-03-05T02:06:43.832Z,6.09
2019-03-05T02:09:12.436Z,6.12
2019-03-05T02:11:40.664Z,6.15
2019-03-05T02:14:08.969Z,6.17
2019-03-05T02:16:37.190Z,6.20
2019-03-05T02:19:36.939Z,6.23
2019-03-05T02:22:08.023Z,6.25
2019-03-05T02:24:48.244Z,6.24
2019-03-05T02:27:27.932Z,6.19
2019-03-05T02:30:02.464Z,6.18
2019-03-05T02:32:39.581Z,6.19
2019-03-05T02:35:16.626Z,6.18
2019-03-05T02:38:08.700Z,6.17
2019-03-05T02:40:45.808Z,6.15
2019-03-05T02:43:26.112Z,6.17
2019-03-05T02:46:06.119Z,6.12
2019-03-05T02:48:55.320Z,6.11
2019-03-05T02:51:26.716Z,6.04
2019-03-05T02:54:14.609Z,6.05
2019-03-05T02:56:46.005Z,6.05
2019-03-05T02:59:13.209Z,6.04
2019-03-05T03:01:51.769Z,6.02
2019-03-05T03:04:21.638Z,6.02
2019-03-05T03:06:50.096Z,6.01
2019-03-05T03:09:29.901Z,6.03
2019-03-05T03:11:58.211Z,6.02
2019-03-05T03:14:26.673Z,6.06
2019-03-05T03:16:55.121Z,6.09
2019-03-05T03:19:23.356Z,6.10
2019-03-05T03:21:51.584Z,6.19
2019-03-05T03:24:19.824Z,6.25
2019-03-05T03:26:48.052Z,6.29
2019-03-05T03:29:16.517Z,6.32
2019-03-05T03:31:44.744Z,6.35
2019-03-05T03:34:13.210Z,6.32
2019-03-05T03:36:41.431Z,6.34
2019-03-05T03:39:09.676Z,6.37
2019-03-05T03:41:37.903Z,6.33
2019-03-05T03:44:06.366Z,6.39
2019-03-05T03:46:34.827Z,6.35
2019-03-05T03:49:03.281Z,6.41
2019-03-05T03:51:31.523Z,6.40
2019-03-05T03:53:59.972Z,6.38
2019-03-05T03:56:28.431Z,6.32
2019-03-05T03:58:56.666Z,6.22
2019-03-05T04:01:24.905Z,6.21
2019-03-05T04:03:53.354Z,6.20
2019-03-05T04:06:21.583Z,6.20
2019-03-05T04:08:50.045Z,6.18
2019-03-05T04:11:18.293Z,6.13
2019-03-05T04:13:46.511Z,6.07
2019-03-05T04:16:14.745Z,6.05
2019-03-05T04:18:42.966Z,5.99
2019-03-05T04:21:11.204Z,5.94
2019-03-05T04:23:39.428Z,5.95
2019-03-05T04:26:07.884Z,5.91
2019-03-05T04:28:36.107Z,5.84
2019-03-05T04:31:04.339Z,5.77
2019-03-05T04:33:32.809Z,5.75
2019-03-05T04:36:01.258Z,5.74
2019-03-05T04:38:29.496Z,5.74
2019-03-05T04:40:57.717Z,5.82
2019-03-05T04:43:25.953Z,5.84
2019-03-05T04:46:01.750Z,5.91
2019-03-05T04:48:30.227Z,5.95
2019-03-05T04:51:00.084Z,6.01
2019-03-05T04:53:28.318Z,6.06
2019-03-05T04:55:56.544Z,6.10
2019-03-05T04:58:24.781Z,6.08
2019-03-05T05:00:56.285Z,6.03
2019-03-05T05:03:24.528Z,5.96
2019-03-05T05:05:52.754Z,5.94
2019-03-05T05:08:20.989Z,5.92
2019-03-05T05:10:49.220Z,5.91
2019-03-05T05:13:17.450Z,5.88
2019-03-05T05:15:45.674Z,5.83
2019-03-05T05:18:13.913Z,5.84
2019-03-05T05:20:42.141Z,5.81
2019-03-05T05:23:10.371Z,5.77
2019-03-05T05:25:38.826Z,5.68
2019-03-05T05:28:07.051Z,5.63
2019-03-05T05:30:39.652Z,5.57
2019-03-05T05:33:08.660Z,5.56
2019-03-05T05:35:36.951Z,5.53
2019-03-05T05:38:05.243Z,5.47
2019-03-05T05:40:35.885Z,5.41
2019-03-05T05:43:05.798Z,5.40
2019-03-05T05:45:45.003Z,5.38
2019-03-05T05:48:13.231Z,5.36
2019-03-05T05:50:41.467Z,5.38
2019-03-05T05:53:09.919Z,5.41
2019-03-05T05:55:38.153Z,5.47
2019-03-05T05:58:06.381Z,5.56
2019-03-05T06:00:36.255Z,5.65
2019-03-05T06:03:04.711Z,5.71
2019-03-05T06:05:33.170Z,5.76
2019-03-05T06:08:01.397Z,5.76
2019-03-05T06:10:29.633Z,5.76
2019-03-05T06:12:57.865Z,5.81
2019-03-05T06:15:26.102Z,5.83
2019-03-05T06:17:54.322Z,5.88
2019-03-05T06:20:22.560Z,5.90
2019-03-05T06:22:50.784Z,5.91
2019-03-05T06:25:19.251Z,5.92
2019-03-05T06:27:47.699Z,5.95
2019-03-05T06:30:23.102Z,6.02
2019-03-05T06:32:51.336Z,6.01
2019-03-05T06:35:19.581Z,6.05
2019-03-05T06:37:47.799Z,6.12
2019-03-05T06:40:17.794Z,6.13
2019-03-05T06:42:46.253Z,6.13
2019-03-05T06:45:16.315Z,6.17
2019-03-05T06:47:44.555Z,6.20
2019-03-05T06:50:14.647Z,6.25
2019-03-05T06:52:43.106Z,6.25
2019-03-05T06:55:13.073Z,6.28
2019-03-05T06:57:41.307Z,6.31
2019-03-05T07:00:22.487Z,6.32
2019-03-05T07:02:50.949Z,6.39
2019-03-05T07:05:55.434Z,6.38
2019-03-05T07:08:23.887Z,6.34
2019-03-05T07:11:01.522Z,6.41
2019-03-05T07:13:30.700Z,6.41
2019-03-05T07:16:02.081Z,6.46
2019-03-05T07:18:36.564Z,6.46
2019-03-05T07:21:32.857Z,6.50
2019-03-05T07:24:16.083Z,6.54
2019-03-05T07:26:44.318Z,6.60
2019-03-05T07:29:12.543Z,6.64
2019-03-05T07:31:40.789Z,6.75
2019-03-05T07:34:10.977Z,6.83
2019-03-05T07:36:39.226Z,6.95
2019-03-05T07:39:10.634Z,7.09
2019-03-05T07:41:39.198Z,7.13
2019-03-05T07:44:07.433Z,7.09
2019-03-05T07:46:35.740Z,7.11
2019-03-05T07:49:04.235Z,7.12
2019-03-05T07:51:32.462Z,7.11
2019-03-05T07:54:01.003Z,7.04
2019-03-05T07:56:29.224Z,7.05
2019-03-05T07:58:57.693Z,7.06
2019-03-05T08:01:25.927Z,7.09
2019-03-05T08:03:54.157Z,7.03
2019-03-05T08:06:22.387Z,7.02
2019-03-05T08:09:27.412Z,7.06
2019-03-05T08:12:01.531Z,7.10
2019-03-05T08:14:38.866Z,7.02
2019-03-05T08:17:07.478Z,7.11
2019-03-05T08:19:35.728Z,7.20
2019-03-05T08:22:04.830Z,7.14
2019-03-05T08:24:33.075Z,7.23
2019-03-05T08:27:01.311Z,7.29
2019-03-05T08:29:29.547Z,7.22
2019-03-05T08:31:58.087Z,7.20
2019-03-05T08:34:26.325Z,7.22
2019-03-05T08:36:54.590Z,7.23
2019-03-05T08:39:23.131Z,7.20
2019-03-05T08:41:51.364Z,7.16
2019-03-05T08:44:19.974Z,7.23
2019-03-05T08:46:48.206Z,7.19
2019-03-05T08:49:17.973Z,7.22
2019-03-05T08:51:46.245Z,7.20
2019-03-05T08:54:14.488Z,7.23
2019-03-05T08:56:42.723Z,7.23
2019-03-05T08:59:11.188Z,7.29
2019-03-05T09:01:39.418Z,7.33
2019-03-05T09:04:07.891Z,7.38
2019-03-05T09:06:36.186Z,7.41
2019-03-05T09:09:06.532Z,7.42
2019-03-05T09:11:34.762Z,7.37
2019-03-05T09:14:03.021Z,7.36
2019-03-05T09:16:31.487Z,7.26
2019-03-05T09:18:59.721Z,7.21
2019-03-05T09:21:27.958Z,7.08
2019-03-05T09:23:56.197Z,6.95
2019-03-05T09:26:24.441Z,6.90
2019-03-05T09:28:52.673Z,6.91
2019-03-05T09:31:20.914Z,6.89
2019-03-05T09:33:49.430Z,6.85
2019-03-05T09:36:18.007Z,6.84
2019-03-05T09:38:46.459Z,6.79
2019-03-05T09:41:14.698Z,6.74
2019-03-05T09:43:42.935Z,6.81
2019-03-05T09:46:11.427Z,6.78
2019-03-05T09:48:39.663Z,6.81
2019-03-05T09:51:08.183Z,6.86
2019-03-05T09:53:36.416Z,6.86
2019-03-05T09:56:05.697Z,6.89
2019-03-05T09:58:33.994Z,6.92
2019-03-05T10:01:02.478Z,6.91
2019-03-05T10:03:30.700Z,6.93
2019-03-05T10:05:58.947Z,6.99
2019-03-05T10:08:32.365Z,7.00
2019-03-05T10:10:57.133Z,7.07
2019-03-05T10:13:25.393Z,7.10
2019-03-05T10:15:53.885Z,7.12
2019-03-05T10:18:22.366Z,7.14
2019-03-05T10:20:50.888Z,7.21
2019-03-05T10:23:19.128Z,7.20
2019-03-05T10:25:47.351Z,7.27
2019-03-05T10:28:15.940Z,7.26
2019-03-05T10:30:44.343Z,7.25
2019-03-05T10:33:14.050Z,7.20
2019-03-05T10:35:42.520Z,7.17
2019-03-05T10:38:11.933Z,7.07
2019-03-05T10:40:46.468Z,7.04
2019-03-05T10:43:15.936Z,7.06
2019-03-05T10:45:47.679Z,7.04
2019-03-05T10:48:21.171Z,6.96
2019-03-05T10:50:49.551Z,6.87
2019-03-05T10:53:17.858Z,6.89
2019-03-05T10:55:46.085Z,6.84
2019-03-05T10:58:16.766Z,6.77
2019-03-05T11:00:55.842Z,6.76
2019-03-05T11:03:26.779Z,6.73
2019-03-05T11:05:55.082Z,6.72
2019-03-05T11:08:24.846Z,6.77
2019-03-05T11:10:53.968Z,6.78
2019-03-05T11:13:22.273Z,6.81
2019-03-05T11:15:53.671Z,6.81
2019-03-05T11:18:29.434Z,6.80
2019-03-05T11:20:52.353Z,6.68
2019-03-05T11:23:20.595Z,6.78
2019-03-05T11:25:49.125Z,6.83
2019-03-05T11:28:17.490Z,6.90
2019-03-05T11:30:45.680Z,6.98
2019-03-05T11:33:13.988Z,7.09
2019-03-05T11:35:42.443Z,7.17
2019-03-05T11:38:11.017Z,7.23
2019-03-05T11:40:39.517Z,7.30
2019-03-05T11:43:12.950Z,7.26
2019-03-05T11:45:42.335Z,7.26
2019-03-05T11:48:10.874Z,7.29
2019-03-05T11:50:39.114Z,7.29
2019-03-05T11:53:07.359Z,7.34
2019-03-05T11:55:35.833Z,7.38
2019-03-05T11:58:04.072Z,7.37
2019-03-05T12:00:43.899Z,7.43
2019-03-05T12:03:12.129Z,7.38
2019-03-05T12:05:40.594Z,7.31
2019-03-05T12:08:08.822Z,7.29
2019-03-05T12:10:37.064Z,7.20
2019-03-05T12:13:05.468Z,7.21
2019-03-05T12:15:36.873Z,7.20
2019-03-05T12:18:05.280Z,7.26
2019-03-05T12:20:33.534Z,7.30
2019-03-05T12:23:02.472Z,7.33
2019-03-05T12:25:31.088Z,7.39
2019-03-05T12:28:09.766Z,7.37
2019-03-05T12:30:31.152Z,7.48
2019-03-05T12:32:59.572Z,7.52
2019-03-05T12:35:27.822Z,7.57
2019-03-05T12:37:56.049Z,7.49
2019-03-05T12:40:25.430Z,7.49
2019-03-05T12:42:53.670Z,7.43
2019-03-05T12:45:23.381Z,7.35
2019-03-05T12:47:52.046Z,7.32
2019-03-05T12:50:28.518Z,7.26
2019-03-05T12:52:57.125Z,7.26
2019-03-05T12:55:25.743Z,7.26
2019-03-05T12:57:53.976Z,7.32
2019-03-05T13:00:26.197Z,7.49
2019-03-05T13:02:54.564Z,7.68
2019-03-05T13:05:23.206Z,7.88
2019-03-05T13:07:52.513Z,7.95
2019-03-05T13:10:35.269Z,8.08
2019-03-05T13:12:58.772Z,8.21
2019-03-05T13:15:31.910Z,8.24
2019-03-05T13:18:00.139Z,8.30
2019-03-05T13:20:28.381Z,8.30
2019-03-05T13:22:56.610Z,8.36
2019-03-05T13:25:28.412Z,8.40
2019-03-05T13:27:57.558Z,8.46
2019-03-05T13:30:27.089Z,8.54
2019-03-05T13:32:59.245Z,8.64
2019-03-05T13:35:30.259Z,8.75
2019-03-05T13:37:58.897Z,8.82
2019-03-05T13:40:30.105Z,8.89
2019-03-05T13:42:59.051Z,8.95
2019-03-05T13:45:27.618Z,9.06
2019-03-05T13:48:08.246Z,9.14
2019-03-05T13:50:48.660Z,9.21
2019-03-05T13:53:36.758Z,9.27
2019-03-05T13:56:20.143Z,9.40
2019-03-05T13:59:09.167Z,9.50
2019-03-05T14:01:37.642Z,9.58
2019-03-05T14:04:17.983Z,9.63
2019-03-05T14:07:04.692Z,9.63
2019-03-05T14:09:31.927Z,9.62
2019-03-05T14:12:00.157Z,9.60
2019-03-05T14:14:28.398Z,9.54
2019-03-05T14:16:58.650Z,9.58
2019-03-05T14:19:27.141Z,9.63
2019-03-05T14:21:55.398Z,9.68
2019-03-05T14:24:23.623Z,9.81
2019-03-05T14:26:51.847Z,9.93
2019-03-05T14:29:20.203Z,10.11
2019-03-05T14:31:48.445Z,10.30
2019-03-05T14:34:16.934Z,10.49
2019-03-05T14:36:45.167Z,10.63
2019-03-05T14:39:26.422Z,10.84
2019-03-05T14:41:54.781Z,10.98
2019-03-05T14:44:23.042Z,11.07
2019-03-05T14:46:56.376Z,11.22
2019-03-05T14:49:24.616Z,11.37
2019-03-05T14:51:52.844Z,11.41
2019-03-05T14:54:21.764Z,11.44
2019-03-05T14:56:50.495Z,11.52
2019-03-05T14:59:19.050Z,11.58
2019-03-05T15:01:47.431Z,11.54
2019-03-05T15:04:15.690Z,11.56
2019-03-05T15:06:44.038Z,11.62
2019-03-05T15:09:12.330Z,11.61
2019-03-05T15:11:40.532Z,11.63
2019-03-05T15:14:09.057Z,11.66
2019-03-05T15:16:37.301Z,11.54
2019-03-05T15:19:05.738Z,11.62
2019-03-05T15:21:34.220Z,11.64
2019-03-05T15:24:02.521Z,11.72
2019-03-05T15:26:30.782Z,11.82
2019-03-05T15:28:59.035Z,11.89
2019-03-05T15:31:27.478Z,11.90
2019-03-05T15:33:55.755Z,11.87
2019-03-05T15:36:24.297Z,11.90
2019-03-05T15:38:52.904Z,11.87
2019-03-05T15:41:21.187Z,11.96
2019-03-05T15:43:49.375Z,12.02
2019-03-05T15:46:17.959Z,12.09
2019-03-05T15:48:46.393Z,12.09
2019-03-05T15:51:14.660Z,12.08
2019-03-05T15:56:11.419Z,12.24
2019-03-05T15:58:39.893Z,12.25
2019-03-05T16:01:09.927Z,12.29
2019-03-05T16:03:38.355Z,12.24
2019-03-05T16:06:06.901Z,12.11
2019-03-05T16:08:35.393Z,11.98
2019-03-05T16:11:03.962Z,11.77
2019-03-05T16:13:32.778Z,11.59
2019-03-05T16:16:01.068Z,11.34
2019-03-05T16:18:29.301Z,11.12
2019-03-05T16:20:58.116Z,10.93
2019-03-05T16:23:28.402Z,10.76
2019-03-05T16:25:57.827Z,10.60
2019-03-05T16:28:26.287Z,10.50
2019-03-05T16:30:59.066Z,10.25
2019-03-05T16:33:32.485Z,10.30
2019-03-05T16:36:00.815Z,10.20
2019-03-05T16:38:51.119Z,10.11
2019-03-05T16:41:23.645Z,9.98
2019-03-05T16:43:56.245Z,9.96
2019-03-05T16:46:26.130Z,9.82
2019-03-05T16:49:01.782Z,9.70
2019-03-05T16:51:34.650Z,9.60
2019-03-05T16:54:07.058Z,9.49
2019-03-05T16:56:45.594Z,9.39
2019-03-05T16:59:18.399Z,9.31
2019-03-05T17:01:48.350Z,9.27
2019-03-05T17:04:21.240Z,9.22
2019-03-05T17:07:07.693Z,9.18
2019-03-05T17:09:46.795Z,9.12
2019-03-05T17:12:15.368Z,9.04
2019-03-05T17:14:43.600Z,8.92
2019-03-05T17:17:11.973Z,8.84
2019-03-05T17:19:40.497Z,8.79
2019-03-05T17:22:08.741Z,8.72
2019-03-05T17:24:36.968Z,8.64
2019-03-05T17:27:05.196Z,8.54
2019-03-05T17:29:33.665Z,8.52
2019-03-05T17:32:02.301Z,8.40
2019-03-05T17:34:30.537Z,8.34
2019-03-05T17:36:59.067Z,8.28
2019-03-05T17:39:27.542Z,8.24
2019-03-05T17:41:55.764Z,8.12
2019-03-05T17:44:24.002Z,8.09
2019-03-05T17:46:52.459Z,8.01
2019-03-05T17:49:20.710Z,7.96
2019-03-05T17:51:48.936Z,7.91
2019-03-05T17:54:17.178Z,7.82
2019-03-05T17:56:45.408Z,7.77
2019-03-05T17:59:13.957Z,7.73
2019-03-05T18:01:42.437Z,7.70
2019-03-05T18:04:10.685Z,7.61
2019-03-05T18:06:38.912Z,7.59
2019-03-05T18:09:07.704Z,7.54
2019-03-05T18:11:36.373Z,7.50
2019-03-05T18:14:04.917Z,7.47
2019-03-05T18:16:33.147Z,7.39
2019-03-05T18:19:01.390Z,7.35
2019-03-05T18:21:29.625Z,7.30
2019-03-05T18:23:58.028Z,7.21
2019-03-05T18:26:26.261Z,7.17
2019-03-05T18:28:54.531Z,7.10
2019-03-05T18:31:22.776Z,7.06
2019-03-05T18:33:51.271Z,7.01
2019-03-05T18:36:19.921Z,6.93
2019-03-05T18:38:48.149Z,6.89
2019-03-05T18:41:16.634Z,6.87
2019-03-05T18:43:45.196Z,6.79
2019-03-05T18:46:13.900Z,6.69
2019-03-05T18:48:42.212Z,6.65
2019-03-05T18:51:10.759Z,6.58
2019-03-05T18:53:38.997Z,6.50
2019-03-05T18:56:07.239Z,6.25
2019-03-05T18:58:35.497Z,6.34
2019-03-05T19:01:03.734Z,6.28
2019-03-05T19:03:31.970Z,6.22
2019-03-05T19:06:00.212Z,6.19
2019-03-05T19:08:28.458Z,6.12
2019-03-05T19:10:56.706Z,6.05
2019-03-05T19:13:25.550Z,5.99
2019-03-05T19:15:54.043Z,5.94
2019-03-05T19:18:22.621Z,5.88
2019-03-05T19:20:50.934Z,5.87
2019-03-05T19:23:19.182Z,5.86
2019-03-05T19:25:48.593Z,5.85
2019-03-05T19:28:16.829Z,5.82
2019-03-05T19:30:52.109Z,5.79
2019-03-05T19:33:20.412Z,5.80
2019-03-05T19:35:48.641Z,5.74
2019-03-05T19:38:17.334Z,5.75
2019-03-05T19:40:47.326Z,5.71
2019-03-05T19:43:15.571Z,5.70
2019-03-05T19:45:43.786Z,5.67
2019-03-05T19:48:12.023Z,5.63
2019-03-05T19:50:40.488Z,5.62
2019-03-05T19:53:08.721Z,5.56
2019-03-05T19:55:36.947Z,5.54
2019-03-05T19:58:08.166Z,5.51
2019-03-05T20:00:39.592Z,5.48
2019-03-05T20:03:07.999Z,5.47
2019-03-05T20:05:36.230Z,5.47
2019-03-05T20:08:04.536Z,5.43
2019-03-05T20:10:37.314Z,5.39
2019-03-05T20:13:05.771Z,5.35
2019-03-05T20:15:34.004Z,5.29
2019-03-05T20:18:02.235Z,5.23
2019-03-05T20:20:30.461Z,5.19
2019-03-05T20:22:58.709Z,5.14
2019-03-05T20:25:28.878Z,5.07
2019-03-05T20:27:57.106Z,5.07
2019-03-05T20:30:25.610Z,5.06
2019-03-05T20:32:53.837Z,5.04
2019-03-05T20:35:22.294Z,4.99
2019-03-05T20:37:50.524Z,4.94
2019-03-05T20:40:32.054Z,4.94
2019-03-05T20:43:02.222Z,4.94
2019-03-05T20:45:35.099Z,4.91
2019-03-05T20:48:03.396Z,4.91
2019-03-05T20:50:31.905Z,4.72
2019-03-05T20:53:00.365Z,4.52
2019-03-05T20:55:28.598Z,4.50
2019-03-05T20:57:56.829Z,4.63
2019-03-05T21:00:35.298Z,4.69
2019-03-05T21:03:06.698Z,4.53
2019-03-05T21:05:40.651Z,4.53
2019-03-05T21:08:09.102Z,4.59
2019-03-05T21:10:37.333Z,4.62
2019-03-05T21:13:05.627Z,4.62
2019-03-05T21:15:35.013Z,4.47
2019-03-05T21:18:05.523Z,4.47
2019-03-05T21:20:33.990Z,4.48
2019-03-05T21:23:02.442Z,4.50
2019-03-05T21:25:30.959Z,4.50
2019-03-05T21:27:59.183Z,4.41
2019-03-05T21:30:28.158Z,4.47
2019-03-05T21:32:56.382Z,4.41
2019-03-05T21:35:24.834Z,4.41
2019-03-05T21:37:53.251Z,4.43
2019-03-05T21:40:24.079Z,4.43
2019-03-05T21:42:52.652Z,4.43
2019-03-05T21:45:27.250Z,4.35
2019-03-05T21:47:55.718Z,4.42
2019-03-05T21:50:23.950Z,4.36
2019-03-05T21:52:52.407Z,4.42
2019-03-05T21:55:20.885Z,4.47
2019-03-05T21:57:49.123Z,4.47
2019-03-05T22:00:22.725Z,4.38
2019-03-05T22:02:50.958Z,4.38
2019-03-05T22:05:19.188Z,4.60
2019-03-05T22:07:47.489Z,4.72
2019-03-05T22:10:18.323Z,4.79
2019-03-05T22:12:46.633Z,4.83
2019-03-05T22:15:17.104Z,4.88
2019-03-05T22:17:45.337Z,4.91
2019-03-05T22:20:15.402Z,4.89
2019-03-05T22:22:43.862Z,4.97
2019-03-05T22:25:14.806Z,5.00
2019-03-05T22:27:43.045Z,5.02
2019-03-05T22:30:14.712Z,5.03
2019-03-05T22:32:43.226Z,5.04
2019-03-05T22:35:11.641Z,5.06
2019-03-05T22:37:40.004Z,5.06
2019-03-05T22:40:13.601Z,4.96
2019-03-05T22:42:41.830Z,5.07
2019-03-05T22:45:15.414Z,5.09
2019-03-05T22:47:43.624Z,5.09
2019-03-05T22:50:13.492Z,5.09
2019-03-05T22:52:41.765Z,5.09
2019-03-05T22:55:12.651Z,5.18
2019-03-05T22:57:40.893Z,5.18
2019-03-05T23:00:15.613Z,5.17
2019-03-05T23:02:43.937Z,5.11
2019-03-05T23:05:12.903Z,5.05
2019-03-05T23:07:41.167Z,5.05
2019-03-05T23:10:11.605Z,4.97
2019-03-05T23:12:39.940Z,4.97
2019-03-05T23:15:13.153Z,5.04
2019-03-05T23:17:41.412Z,4.89
2019-03-05T23:20:11.576Z,4.89
2019-03-05T23:22:39.880Z,5.18
2019-03-05T23:25:09.679Z,5.27
2019-03-05T23:27:38.408Z,5.30
2019-03-05T23:30:16.004Z,5.31
2019-03-05T23:32:44.235Z,5.35
2019-03-05T23:35:14.353Z,5.37
2019-03-05T23:37:42.600Z,5.38
2019-03-05T23:40:11.986Z,5.43
2019-03-05T23:42:40.219Z,5.38
2019-03-05T23:45:11.013Z,5.45
2019-03-05T23:47:39.732Z,5.53
2019-03-05T23:50:15.027Z,5.54
2019-03-05T23:52:43.342Z,5.60
2019-03-05T23:55:12.649Z,5.69
2019-03-05T23:57:40.875Z,5.72
